createdAt,value
2023-02-03T00:00:17.022Z,3.60
2023-02-03T00:02:44.798Z,3.83
2023-02-03T00:05:12.638Z,3.80
2023-02-03T00:07:40.690Z,3.42
2023-02-03T00:10:08.769Z,3.03
2023-02-03T00:12:36.812Z,3.20
2023-02-03T00:15:05.041Z,3.42
2023-02-03T00:17:32.841Z,2.95
2023-02-03T00:20:05.358Z,2.60
2023-02-03T00:22:33.327Z,2.80
2023-02-03T00:25:03.618Z,2.88
2023-02-03T00:27:35.178Z,3.60
2023-02-03T00:30:09.187Z,3.38
2023-02-03T00:32:36.923Z,2.97
2023-02-03T00:35:05.713Z,2.80
2023-02-03T00:37:33.584Z,2.90
2023-02-03T00:40:01.979Z,2.60
2023-02-03T00:42:29.726Z,2.33
2023-02-03T00:45:00.463Z,2.70
2023-02-03T00:47:29.649Z,2.50
2023-02-03T00:49:58.341Z,2.03
2023-02-03T00:52:26.273Z,2.20
2023-02-03T00:54:54.036Z,2.63
2023-02-03T00:57:24.397Z,2.50
2023-02-03T00:59:58.349Z,2.50
2023-02-03T01:02:26.493Z,2.40
2023-02-03T01:04:54.141Z,2.30
2023-02-03T01:07:22.153Z,1.98
2023-02-03T01:09:54.302Z,2.53
2023-02-03T01:12:23.150Z,2.10
2023-02-03T01:14:50.833Z,2.10
2023-02-03T01:17:20.753Z,2.40
2023-02-03T01:19:48.573Z,1.80
2023-02-03T01:22:17.793Z,2.38
2023-02-03T01:24:45.530Z,2.07
2023-02-03T01:27:18.085Z,2.22
2023-02-03T01:29:50.726Z,2.42
2023-02-03T01:32:21.539Z,2.55
2023-02-03T01:34:49.276Z,2.65
2023-02-03T01:37:18.200Z,2.07
2023-02-03T01:39:48.353Z,2.30
2023-02-03T01:42:21.238Z,2.20
2023-02-03T01:44:52.588Z,2.30
2023-02-03T01:47:29.571Z,2.22
2023-02-03T01:50:14.840Z,2.20
2023-02-03T01:52:51.827Z,2.33
2023-02-03T01:55:25.659Z,2.35
2023-02-03T01:58:11.844Z,2.00
2023-02-03T02:00:39.721Z,1.92
2023-02-03T02:03:12.314Z,2.57
2023-02-03T02:05:49.634Z,2.45
2023-02-03T02:08:20.051Z,2.63
2023-02-03T02:10:51.722Z,2.10
2023-02-03T02:13:23.419Z,2.85
2023-02-03T02:15:59.502Z,1.90
2023-02-03T02:18:57.041Z,1.90
2023-02-03T02:21:47.686Z,2.38
2023-02-03T02:24:21.399Z,2.20
2023-02-03T02:27:02.668Z,2.15
2023-02-03T02:30:12.669Z,2.10
2023-02-03T02:32:56.062Z,2.20
2023-02-03T02:35:46.441Z,1.92
2023-02-03T02:38:27.441Z,2.08
2023-02-03T02:41:33.679Z,2.03
2023-02-03T02:44:13.957Z,2.27
2023-02-03T02:46:49.671Z,2.20
2023-02-03T02:49:33.501Z,2.17
2023-02-03T02:52:05.652Z,1.73
2023-02-03T02:54:36.811Z,2.00
2023-02-03T02:57:06.834Z,2.30
2023-02-03T02:59:38.162Z,2.22
2023-02-03T03:02:06.066Z,2.20
2023-02-03T03:04:35.521Z,2.33
2023-02-03T03:07:09.937Z,2.20
2023-02-03T03:09:48.851Z,2.20
2023-02-03T03:12:22.922Z,2.05
2023-02-03T03:15:09.008Z,2.20
2023-02-03T03:17:45.394Z,2.00
2023-02-03T03:20:19.956Z,1.90
2023-02-03T03:22:55.333Z,2.03
2023-02-03T03:25:30.412Z,1.90
2023-02-03T03:28:06.699Z,2.22
2023-02-03T03:30:36.953Z,2.10
2023-02-03T03:33:05.990Z,2.40
2023-02-03T03:35:41.833Z,2.07
2023-02-03T03:38:42.429Z,1.90
2023-02-03T03:41:54.964Z,2.35
2023-02-03T03:44:42.292Z,2.20
2023-02-03T03:47:26.477Z,2.60
2023-02-03T03:49:56.987Z,2.10
2023-02-03T03:52:30.856Z,1.98
2023-02-03T03:55:01.243Z,1.85
2023-02-03T03:57:43.396Z,2.22
2023-02-03T04:00:16.071Z,2.42
2023-02-03T04:02:51.812Z,2.20
2023-02-03T04:05:20.861Z,3.10
2023-02-03T04:07:50.296Z,3.00
2023-02-03T04:10:39.838Z,2.35
2023-02-03T04:13:11.260Z,2.65
2023-02-03T04:15:41.797Z,2.30
2023-02-03T04:18:14.503Z,2.30
2023-02-03T04:20:43.738Z,2.40
2023-02-03T04:23:24.244Z,2.70
2023-02-03T04:25:54.444Z,2.72
2023-02-03T04:28:26.257Z,2.37
2023-02-03T04:30:57.779Z,2.40
2023-02-03T04:33:27.839Z,3.10
2023-02-03T04:35:55.650Z,2.47
2023-02-03T04:38:25.765Z,3.45
2023-02-03T04:41:00.018Z,3.93
2023-02-03T04:43:33.685Z,3.28
2023-02-03T04:46:04.213Z,2.88
2023-02-03T04:48:34.291Z,2.90
2023-02-03T04:51:15.046Z,2.95
2023-02-03T04:53:42.981Z,4.57
2023-02-03T04:56:11.770Z,3.63
2023-02-03T04:58:41.700Z,4.80
2023-02-03T05:01:10.137Z,4.82
2023-02-03T05:03:37.965Z,5.22
2023-02-03T05:06:06.377Z,5.97
2023-02-03T05:08:34.308Z,5.22
2023-02-03T05:11:02.400Z,6.05
2023-02-03T05:13:30.298Z,6.05
2023-02-03T05:16:02.397Z,6.70
2023-02-03T05:18:32.974Z,6.67
2023-02-03T05:21:00.678Z,7.25
2023-02-03T05:23:28.420Z,6.47
2023-02-03T05:25:56.045Z,6.90
2023-02-03T05:28:23.774Z,7.10
2023-02-03T05:30:51.446Z,7.60
2023-02-03T05:33:19.267Z,6.88
2023-02-03T05:35:47.001Z,8.05
2023-02-03T05:38:14.797Z,7.38
2023-02-03T05:41:01.871Z,7.30
2023-02-03T05:43:32.124Z,7.00
2023-02-03T05:46:04.498Z,7.65
2023-02-03T05:48:33.171Z,6.85
2023-02-03T05:51:08.592Z,6.95
2023-02-03T05:53:36.222Z,6.35
2023-02-03T05:56:04.071Z,6.33
2023-02-03T05:58:31.844Z,6.30
2023-02-03T06:01:02.105Z,6.55
2023-02-03T06:03:30.089Z,6.57
2023-02-03T06:06:01.613Z,6.68
2023-02-03T06:08:43.008Z,7.40
2023-02-03T06:11:46.235Z,7.93
2023-02-03T06:17:29.813Z,10.70
2023-02-03T06:20:00.691Z,11.70
2023-02-03T06:22:36.676Z,7.17
2023-02-03T06:25:04.926Z,7.28
2023-02-03T06:27:32.591Z,7.32
2023-02-03T06:30:00.445Z,7.60
2023-02-03T06:32:28.306Z,6.93
2023-02-03T06:34:55.988Z,6.27
2023-02-03T06:37:26.729Z,6.25
2023-02-03T06:39:55.341Z,5.30
2023-02-03T06:42:23.051Z,5.57
2023-02-03T06:44:50.987Z,5.88
2023-02-03T06:47:19.647Z,5.67
2023-02-03T06:49:48.534Z,5.32
2023-02-03T06:52:16.211Z,5.50
2023-02-03T06:54:44.281Z,5.00
2023-02-03T06:57:13.087Z,5.32
2023-02-03T06:59:43.039Z,5.67
2023-02-03T07:02:14.347Z,5.43
2023-02-03T07:04:45.188Z,4.70
2023-02-03T07:07:16.786Z,5.30
2023-02-03T07:09:46.965Z,5.85
2023-02-03T07:12:14.712Z,5.23
2023-02-03T07:14:52.293Z,5.85
2023-02-03T07:17:20.104Z,5.28
2023-02-03T07:19:50.408Z,5.93
2023-02-03T07:22:20.532Z,4.90
2023-02-03T07:24:48.328Z,5.73
2023-02-03T07:27:17.511Z,7.60
2023-02-03T07:29:45.232Z,8.13
2023-02-03T07:32:15.753Z,6.50
2023-02-03T07:34:46.235Z,7.13
2023-02-03T07:37:16.709Z,6.03
2023-02-03T07:39:49.512Z,5.53
2023-02-03T07:42:21.260Z,5.22
2023-02-03T07:44:54.241Z,5.75
2023-02-03T07:47:25.101Z,6.40
2023-02-03T07:50:23.142Z,6.72
2023-02-03T07:52:52.536Z,6.90
2023-02-03T07:55:28.805Z,7.38
2023-02-03T07:58:03.126Z,7.30
2023-02-03T08:00:31.410Z,6.80
2023-02-03T08:02:59.310Z,6.40
2023-02-03T08:05:26.984Z,5.73
2023-02-03T08:08:01.156Z,7.47
2023-02-03T08:10:33.099Z,7.20
2023-02-03T08:13:00.860Z,7.07
2023-02-03T08:15:30.529Z,6.50
2023-02-03T08:17:59.772Z,5.27
2023-02-03T08:20:40.075Z,7.68
2023-02-03T08:23:12.284Z,6.07
2023-02-03T08:25:42.192Z,6.30
2023-02-03T08:28:15.234Z,3.13
2023-02-03T08:30:45.140Z,2.77
2023-02-03T08:33:16.186Z,1.98
2023-02-03T08:35:48.807Z,2.20
2023-02-03T08:38:17.144Z,2.70
2023-02-03T08:40:48.978Z,2.25
2023-02-03T08:43:16.836Z,1.77
2023-02-03T08:45:44.755Z,3.47
2023-02-03T08:48:13.858Z,3.15
2023-02-03T08:50:46.947Z,2.80
2023-02-03T08:53:17.726Z,3.75
2023-02-03T08:55:48.270Z,3.97
2023-02-03T08:58:16.217Z,4.13
2023-02-03T09:00:46.851Z,4.40
2023-02-03T09:03:17.606Z,4.85
2023-02-03T09:05:47.987Z,5.18
2023-02-03T09:08:15.908Z,7.37
2023-02-03T09:10:48.877Z,6.65
2023-02-03T09:13:17.883Z,8.57
2023-02-03T09:15:45.563Z,11.75
2023-02-03T09:18:16.559Z,14.40
2023-02-03T09:20:49.735Z,17.20
2023-02-03T09:23:23.186Z,16.05
2023-02-03T09:25:56.047Z,14.30
2023-02-03T09:28:28.428Z,13.32
2023-02-03T09:31:03.071Z,13.75
2023-02-03T09:33:34.282Z,16.07
2023-02-03T09:36:03.083Z,11.43
2023-02-03T09:38:35.229Z,9.48
2023-02-03T09:41:12.646Z,7.60
2023-02-03T09:43:59.974Z,4.05
2023-02-03T09:46:32.772Z,4.20
2023-02-03T09:49:18.471Z,4.57
2023-02-03T09:52:05.038Z,4.65
2023-02-03T09:54:51.766Z,4.43
2023-02-03T09:57:28.163Z,2.60
2023-02-03T10:00:04.338Z,2.63
2023-02-03T10:02:54.568Z,2.40
2023-02-03T10:06:05.802Z,2.42
2023-02-03T10:08:54.148Z,3.63
2023-02-03T10:11:50.587Z,3.38
2023-02-03T10:14:38.157Z,3.10
2023-02-03T10:17:30.984Z,2.77
2023-02-03T10:20:10.979Z,3.88
2023-02-03T10:22:53.752Z,3.10
2023-02-03T10:25:36.638Z,2.70
2023-02-03T10:28:19.367Z,3.10
2023-02-03T10:31:08.938Z,3.00
2023-02-03T10:33:37.114Z,4.07
2023-02-03T10:36:32.591Z,3.38
2023-02-03T10:39:14.183Z,4.13
2023-02-03T10:41:42.148Z,2.80
2023-02-03T10:44:14.798Z,3.20
2023-02-03T10:46:51.216Z,3.77
2023-02-03T10:49:22.860Z,2.67
2023-02-03T10:51:55.704Z,2.38
2023-02-03T10:54:39.026Z,4.82
2023-02-03T10:57:14.254Z,4.43
2023-02-03T10:59:48.147Z,4.83
2023-02-03T11:02:30.856Z,7.05
2023-02-03T11:05:16.988Z,3.70
2023-02-03T11:07:45.520Z,3.97
2023-02-03T11:10:38.192Z,5.22
2023-02-03T11:13:20.965Z,3.90
2023-02-03T11:15:51.903Z,5.68
2023-02-03T11:18:38.482Z,4.47
2023-02-03T11:21:22.626Z,3.58
2023-02-03T11:23:58.091Z,3.42
2023-02-03T11:26:37.694Z,3.00
2023-02-03T11:29:09.600Z,2.57
2023-02-03T11:31:43.175Z,2.58
2023-02-03T11:34:24.280Z,3.28
2023-02-03T11:37:09.605Z,2.42
2023-02-03T11:39:40.439Z,2.30
2023-02-03T11:42:23.237Z,2.00
2023-02-03T11:45:35.480Z,1.70
2023-02-03T11:48:22.118Z,2.20
2023-02-03T11:51:07.965Z,1.98
2023-02-03T11:53:58.805Z,2.40
2023-02-03T11:57:13.920Z,3.23
2023-02-03T11:59:56.706Z,3.47
2023-02-03T12:03:03.832Z,4.38
2023-02-03T12:05:46.186Z,2.65
2023-02-03T12:08:40.218Z,2.35
2023-02-03T12:11:24.039Z,2.50
2023-02-03T12:14:25.328Z,2.50
2023-02-03T12:17:37.486Z,2.55
2023-02-03T12:20:26.979Z,2.85
2023-02-03T12:23:23.702Z,2.40
2023-02-03T12:26:27.918Z,2.50
2023-02-03T12:29:08.163Z,3.13
2023-02-03T12:31:40.103Z,2.80
2023-02-03T12:34:23.788Z,3.28
2023-02-03T12:37:06.934Z,3.45
2023-02-03T12:39:51.689Z,2.00
2023-02-03T12:42:32.026Z,2.13
2023-02-03T12:45:08.080Z,2.30
2023-02-03T12:47:51.441Z,2.78
2023-02-03T12:50:40.985Z,2.55
2023-02-03T12:53:21.813Z,3.20
2023-02-03T12:56:16.748Z,3.60
2023-02-03T12:58:55.035Z,3.50
2023-02-03T13:01:35.381Z,4.97
2023-02-03T13:04:54.739Z,3.50
2023-02-03T13:07:46.569Z,4.50
2023-02-03T13:10:29.540Z,3.00
2023-02-03T13:13:10.957Z,4.57
2023-02-03T13:15:45.951Z,2.83
2023-02-03T13:18:34.804Z,4.65
2023-02-03T13:21:03.051Z,2.70
2023-02-03T13:23:31.991Z,3.38
2023-02-03T13:26:14.706Z,2.20
2023-02-03T13:29:30.378Z,3.07
2023-02-03T13:32:14.740Z,2.75
2023-02-03T13:35:34.525Z,3.78
2023-02-03T13:38:15.931Z,4.00
2023-02-03T13:41:05.437Z,3.92
2023-02-03T13:43:39.426Z,2.97
2023-02-03T13:46:21.644Z,3.07
2023-02-03T13:48:50.185Z,3.60
2023-02-03T13:51:24.786Z,2.88
2023-02-03T13:53:59.041Z,3.10
2023-02-03T13:57:03.065Z,3.00
2023-02-03T13:59:39.801Z,3.93
2023-02-03T14:02:24.262Z,2.87
2023-02-03T14:04:57.230Z,3.13
2023-02-03T14:07:38.420Z,3.08
2023-02-03T14:10:13.769Z,3.78
2023-02-03T14:12:50.712Z,4.25
2023-02-03T14:15:33.519Z,3.10
2023-02-03T14:18:44.543Z,4.18
2023-02-03T14:21:21.440Z,2.97
2023-02-03T14:23:56.099Z,4.00
2023-02-03T14:26:38.794Z,3.45
2023-02-03T14:29:10.765Z,4.13
2023-02-03T14:32:02.352Z,2.93
2023-02-03T14:34:29.981Z,3.25
2023-02-03T14:37:09.356Z,2.95
2023-02-03T14:39:55.422Z,4.20
2023-02-03T14:43:04.874Z,3.40
2023-02-03T14:45:56.838Z,2.60
2023-02-03T14:48:36.690Z,2.70
2023-02-03T14:51:10.886Z,2.72
2023-02-03T14:54:02.580Z,3.80
2023-02-03T14:57:16.549Z,3.92
2023-02-03T15:00:02.537Z,5.30
2023-02-03T15:02:31.927Z,5.53
2023-02-03T15:05:14.901Z,3.60
2023-02-03T15:07:51.232Z,3.75
2023-02-03T15:10:29.364Z,3.13
2023-02-03T15:12:59.045Z,4.50
2023-02-03T15:15:30.421Z,4.53
2023-02-03T15:18:00.581Z,4.30
2023-02-03T15:20:43.597Z,3.88
2023-02-03T15:23:22.528Z,3.10
2023-02-03T15:25:57.956Z,3.65
2023-02-03T15:28:27.560Z,3.20
2023-02-03T15:31:02.899Z,3.97
2023-02-03T15:33:32.281Z,3.75
2023-02-03T15:36:09.643Z,3.35
2023-02-03T15:38:45.465Z,3.25
2023-02-03T15:41:34.535Z,3.03
2023-02-03T15:44:13.765Z,3.23
2023-02-03T15:46:49.825Z,3.33
2023-02-03T15:49:51.540Z,4.55
2023-02-03T15:52:22.522Z,3.70
2023-02-03T15:54:55.035Z,2.80
2023-02-03T15:57:28.369Z,2.65
2023-02-03T16:00:10.479Z,3.23
2023-02-03T16:02:46.256Z,3.00
2023-02-03T16:05:37.488Z,3.13
2023-02-03T16:08:42.846Z,3.90
2023-02-03T16:11:31.489Z,4.63
2023-02-03T16:14:07.283Z,2.72
2023-02-03T16:17:04.921Z,2.57
2023-02-03T16:19:34.847Z,2.50
2023-02-03T16:22:02.538Z,4.93
2023-02-03T16:24:33.376Z,6.10
2023-02-03T16:27:25.029Z,4.28
2023-02-03T16:30:31.508Z,9.38
2023-02-03T16:33:38.267Z,6.27
2023-02-03T16:36:33.524Z,6.90
2023-02-03T16:39:29.264Z,6.00
2023-02-03T16:42:19.737Z,4.18
2023-02-03T16:45:17.442Z,3.78
2023-02-03T16:48:05.026Z,3.50
2023-02-03T16:50:54.175Z,3.67
2023-02-03T16:53:28.813Z,5.13
2023-02-03T16:55:58.675Z,2.97
2023-02-03T16:58:29.509Z,3.63
2023-02-03T17:01:02.755Z,3.47
2023-02-03T17:03:33.047Z,3.40
2023-02-03T17:06:10.622Z,4.37
2023-02-03T17:08:42.097Z,4.28
2023-02-03T17:11:18.715Z,4.80
2023-02-03T17:13:47.454Z,3.53
2023-02-03T17:16:18.041Z,3.03
2023-02-03T17:18:49.179Z,3.80
2023-02-03T17:21:29.631Z,3.88
2023-02-03T17:23:59.496Z,4.90
2023-02-03T17:26:27.281Z,4.13
2023-02-03T17:28:54.994Z,8.88
2023-02-03T17:31:22.943Z,5.90
2023-02-03T17:33:52.713Z,7.87
2023-02-03T17:36:24.491Z,5.05
2023-02-03T17:55:43.620Z,6.38
2023-02-03T17:58:17.216Z,6.53
2023-02-03T18:00:46.040Z,5.57
2023-02-03T18:03:13.632Z,6.50
2023-02-03T18:05:51.231Z,6.03
2023-02-03T18:08:20.567Z,6.35
2023-02-03T18:10:53.570Z,6.97
2023-02-03T18:13:24.202Z,7.47
2023-02-03T18:15:51.979Z,7.60
2023-02-03T18:18:23.281Z,7.00
2023-02-03T18:20:50.991Z,6.35
2023-02-03T18:23:20.177Z,6.63
2023-02-03T18:25:54.631Z,6.30
2023-02-03T18:28:23.973Z,7.50
2023-02-03T18:31:09.236Z,7.30
2023-02-03T18:33:38.244Z,6.95
2023-02-03T18:36:09.547Z,7.20
2023-02-03T18:38:38.112Z,7.43
2023-02-03T18:41:07.201Z,7.67
2023-02-03T18:43:34.911Z,7.45
2023-02-03T18:46:13.612Z,7.50
2023-02-03T18:48:41.471Z,6.90
2023-02-03T18:51:15.212Z,6.78
2023-02-03T18:53:45.201Z,7.17
2023-02-03T18:56:19.877Z,6.90
2023-02-03T18:58:50.482Z,6.90
2023-02-03T19:01:25.996Z,6.88
2023-02-03T19:04:01.830Z,8.15
2023-02-03T19:06:31.805Z,7.93
2023-02-03T19:09:00.003Z,7.35
2023-02-03T19:11:27.968Z,8.75
2023-02-03T19:13:57.165Z,8.30
2023-02-03T19:16:24.881Z,8.48
2023-02-03T19:18:53.722Z,8.57
2023-02-03T19:21:21.528Z,8.00
2023-02-03T19:23:49.149Z,9.50
2023-02-03T19:26:17.005Z,8.90
2023-02-03T19:28:47.864Z,11.45
2023-02-03T19:31:16.095Z,10.13
2023-02-03T19:33:43.995Z,10.03
2023-02-03T19:36:13.366Z,10.25
2023-02-03T19:38:42.213Z,11.15
2023-02-03T19:41:13.024Z,10.38
2023-02-03T19:43:40.808Z,11.18
2023-02-03T19:46:11.102Z,10.80
2023-02-03T19:48:39.814Z,10.05
2023-02-03T19:51:07.504Z,11.43
2023-02-03T19:53:37.570Z,12.05
2023-02-03T19:56:05.984Z,11.45
2023-02-03T19:58:33.765Z,10.47
2023-02-03T20:01:23.222Z,11.18
2023-02-03T20:03:51.507Z,11.35
2023-02-03T20:06:19.509Z,11.40
2023-02-03T20:08:47.189Z,11.60
2023-02-03T20:11:19.884Z,11.67
2023-02-03T20:13:55.082Z,10.93
2023-02-03T20:16:26.318Z,11.95
2023-02-03T20:18:54.169Z,11.23
2023-02-03T20:21:22.076Z,10.85
2023-02-03T20:23:49.754Z,10.70
2023-02-03T20:26:19.768Z,11.27
2023-02-03T20:28:48.198Z,11.95
2023-02-03T20:31:15.949Z,11.07
2023-02-03T20:33:46.026Z,11.23
2023-02-03T20:36:16.792Z,11.15
2023-02-03T20:38:49.193Z,9.93
2023-02-03T20:41:18.636Z,9.88
2023-02-03T20:43:46.485Z,9.52
2023-02-03T20:46:17.440Z,10.23
2023-02-03T20:48:45.354Z,9.45
2023-02-03T20:51:14.933Z,8.97
2023-02-03T20:53:44.560Z,8.93
2023-02-03T20:56:23.913Z,9.82
2023-02-03T20:58:54.592Z,10.70
2023-02-03T21:01:25.617Z,10.18
2023-02-03T21:04:12.904Z,11.77
2023-02-03T21:06:40.796Z,9.82
2023-02-03T21:09:21.179Z,10.55
2023-02-03T21:11:48.900Z,9.77
2023-02-03T21:14:29.368Z,10.57
2023-02-03T21:17:01.943Z,10.83
2023-02-03T21:19:32.853Z,10.45
2023-02-03T21:22:25.450Z,9.98
2023-02-03T21:25:03.516Z,9.65
2023-02-03T21:27:35.815Z,10.00
2023-02-03T21:30:26.418Z,10.23
2023-02-03T21:32:54.287Z,9.55
2023-02-03T21:35:26.618Z,10.85
2023-02-03T21:38:04.029Z,9.63
2023-02-03T21:40:44.257Z,11.57
2023-02-03T21:43:17.685Z,10.20
2023-02-03T21:45:49.864Z,10.47
2023-02-03T21:48:31.424Z,8.70
2023-02-03T21:51:38.970Z,7.82
2023-02-03T21:54:28.260Z,7.63
2023-02-03T21:57:00.761Z,6.60
2023-02-03T21:59:39.136Z,5.90
2023-02-03T22:02:30.893Z,5.10
2023-02-03T22:04:58.756Z,5.82
2023-02-03T22:10:13.396Z,6.82
2023-02-03T22:12:44.585Z,6.50
2023-02-03T22:15:12.853Z,5.93
2023-02-03T22:17:40.804Z,6.15
2023-02-03T22:20:11.552Z,5.95
2023-02-03T22:22:41.867Z,6.68
2023-02-03T22:25:09.690Z,6.37
2023-02-03T22:27:37.621Z,6.43
2023-02-03T22:30:10.228Z,6.03
2023-02-03T22:32:40.472Z,6.00
2023-02-03T22:35:10.993Z,5.70
2023-02-03T22:37:39.888Z,5.68
2023-02-03T22:40:13.288Z,5.40
2023-02-03T22:42:49.849Z,5.35
2023-02-03T22:45:18.863Z,5.53
2023-02-03T22:47:53.384Z,5.20
2023-02-03T22:50:38.738Z,4.88
2023-02-03T22:53:07.275Z,4.77
2023-02-03T22:55:40.850Z,5.18
2023-02-03T22:58:08.587Z,4.45
2023-02-03T23:00:36.489Z,3.70
2023-02-03T23:03:06.816Z,3.92
2023-02-03T23:05:39.049Z,3.50
2023-02-03T23:08:06.845Z,2.90
2023-02-03T23:10:34.683Z,4.35
2023-02-03T23:13:07.361Z,3.58
2023-02-03T23:15:35.241Z,4.13
2023-02-03T23:18:03.140Z,3.70
2023-02-03T23:20:38.351Z,3.42
2023-02-03T23:23:11.264Z,3.72
2023-02-03T23:25:39.083Z,3.72
2023-02-03T23:28:07.082Z,3.60
2023-02-03T23:30:37.393Z,4.03
2023-02-03T23:33:08.269Z,3.30
2023-02-03T23:35:49.556Z,3.90
2023-02-03T23:38:18.283Z,4.47
2023-02-03T23:40:48.474Z,4.28
2023-02-03T23:43:20.231Z,4.17
2023-02-03T23:45:54.099Z,4.07
2023-02-03T23:48:24.554Z,4.32
2023-02-03T23:50:54.644Z,4.00
2023-02-03T23:53:22.543Z,2.90
2023-02-03T23:55:52.579Z,3.10
2023-02-03T23:58:23.576Z,3.15
